createdAt,value
2022-11-19T00:01:10.099Z,4.49
2022-11-19T00:03:38.705Z,3.56
2022-11-19T00:06:07.537Z,3.37
2022-11-19T00:08:34.885Z,3.13
2022-11-19T00:11:09.654Z,3.73
2022-11-19T00:13:38.736Z,4.10
2022-11-19T00:16:13.915Z,4.32
2022-11-19T00:18:41.595Z,4.47
2022-11-19T00:21:11.832Z,4.68
2022-11-19T00:23:39.765Z,4.34
2022-11-19T00:26:11.964Z,4.37
2022-11-19T00:28:39.725Z,4.12
2022-11-19T00:31:11.977Z,3.70
2022-11-19T00:33:40.363Z,3.91
2022-11-19T00:36:09.572Z,3.73
2022-11-19T00:38:36.643Z,3.62
2022-11-19T00:41:04.574Z,3.81
2022-11-19T00:43:31.866Z,3.72
2022-11-19T00:45:58.438Z,3.81
2022-11-19T00:48:25.089Z,4.16
2022-11-19T00:50:51.705Z,4.25
2022-11-19T00:53:18.663Z,4.06
2022-11-19T00:55:45.357Z,4.38
2022-11-19T00:58:11.991Z,4.50
2022-11-19T01:00:38.651Z,3.78
2022-11-19T01:03:06.082Z,3.45
2022-11-19T01:05:33.512Z,3.52
2022-11-19T01:08:00.114Z,3.48
2022-11-19T01:10:26.725Z,3.48
2022-11-19T01:12:53.339Z,3.49
2022-11-19T01:15:19.933Z,3.06
2022-11-19T01:17:46.525Z,3.05
2022-11-19T01:20:13.444Z,2.65
2022-11-19T01:22:40.201Z,2.66
2022-11-19T01:25:07.105Z,2.09
2022-11-19T01:27:33.719Z,2.41
2022-11-19T01:30:00.312Z,2.33
2022-11-19T01:32:26.932Z,2.29
2022-11-19T01:34:53.562Z,2.37
2022-11-19T01:37:20.170Z,2.43
2022-11-19T01:39:46.814Z,2.71
2022-11-19T01:42:29.107Z,2.53
2022-11-19T01:45:06.344Z,2.45
2022-11-19T01:47:33.406Z,2.49
2022-11-19T01:50:00.446Z,2.58
2022-11-19T01:52:27.826Z,2.53
2022-11-19T01:54:56.130Z,2.53
2022-11-19T01:57:23.004Z,2.54
2022-11-19T01:59:52.681Z,2.58
2022-11-19T02:02:20.644Z,2.76
2022-11-19T02:04:49.360Z,2.70
2022-11-19T02:07:18.895Z,2.35
2022-11-19T02:09:45.776Z,2.24
2022-11-19T02:12:36.626Z,2.12
2022-11-19T02:15:26.639Z,1.97
2022-11-19T02:18:20.440Z,1.98
2022-11-19T02:20:53.088Z,1.93
2022-11-19T02:23:46.347Z,1.73
2022-11-19T02:26:26.680Z,1.52
2022-11-19T02:29:11.477Z,1.82
2022-11-19T02:31:56.051Z,2.07
2022-11-19T02:34:38.725Z,2.17
2022-11-19T02:37:14.955Z,2.46
2022-11-19T02:40:18.433Z,2.94
2022-11-19T02:42:45.012Z,3.65
2022-11-19T02:45:35.125Z,3.27
2022-11-19T02:48:30.378Z,3.43
2022-11-19T02:51:02.656Z,3.38
2022-11-19T02:53:29.842Z,3.07
2022-11-19T02:55:56.597Z,3.20
2022-11-19T02:58:23.841Z,3.30
2022-11-19T03:00:51.329Z,3.45
2022-11-19T03:03:21.125Z,3.50
2022-11-19T03:05:55.456Z,3.40
2022-11-19T03:08:22.429Z,3.54
2022-11-19T03:10:56.560Z,2.81
2022-11-19T03:13:45.083Z,2.27
2022-11-19T03:16:27.489Z,1.78
2022-11-19T03:19:11.692Z,1.47
2022-11-19T03:21:58.465Z,1.33
2022-11-19T03:24:34.076Z,1.15
2022-11-19T03:27:15.056Z,0.81
2022-11-19T03:29:47.666Z,0.52
2022-11-19T03:32:23.430Z,0.43
2022-11-19T03:34:57.061Z,0.30
2022-11-19T03:37:27.674Z,0.32
2022-11-19T03:40:00.012Z,0.21
2022-11-19T03:42:27.744Z,0.17
2022-11-19T03:45:09.956Z,0.15
2022-11-19T03:47:41.202Z,0.19
2022-11-19T03:50:34.070Z,0.16
2022-11-19T03:53:04.372Z,0.16
2022-11-19T03:55:37.621Z,0.15
2022-11-19T03:58:07.179Z,0.15
2022-11-19T04:00:33.816Z,0.21
2022-11-19T04:03:00.948Z,0.23
2022-11-19T04:05:27.556Z,0.28
2022-11-19T04:07:54.169Z,0.27
2022-11-19T04:10:20.893Z,0.21
2022-11-19T04:13:03.527Z,0.27
2022-11-19T04:15:40.470Z,0.25
2022-11-19T04:18:07.137Z,0.26
2022-11-19T04:20:33.840Z,0.32
2022-11-19T04:23:00.615Z,0.30
2022-11-19T04:25:27.318Z,0.29
2022-11-19T04:27:54.094Z,0.26
2022-11-19T04:30:20.744Z,0.26
2022-11-19T04:32:47.332Z,0.29
2022-11-19T04:35:13.945Z,0.35
2022-11-19T04:37:40.552Z,0.49
2022-11-19T04:40:07.959Z,0.68
2022-11-19T04:42:34.581Z,0.74
2022-11-19T04:45:01.275Z,0.70
2022-11-19T04:47:27.860Z,0.76
2022-11-19T04:49:54.434Z,0.59
2022-11-19T04:52:21.029Z,0.47
2022-11-19T04:54:47.611Z,0.44
2022-11-19T04:57:14.225Z,0.45
2022-11-19T04:59:41.091Z,0.45
2022-11-19T05:02:07.728Z,0.43
2022-11-19T05:04:34.681Z,0.42
2022-11-19T05:07:01.403Z,0.46
2022-11-19T05:09:28.097Z,0.51
2022-11-19T05:11:54.717Z,0.51
2022-11-19T05:14:23.687Z,0.42
2022-11-19T05:16:52.633Z,0.46
2022-11-19T05:19:19.384Z,0.48
2022-11-19T05:21:46.181Z,0.47
2022-11-19T05:24:12.836Z,0.49
2022-11-19T05:26:39.505Z,0.52
2022-11-19T05:29:06.324Z,0.50
2022-11-19T05:31:32.960Z,0.56
2022-11-19T05:33:59.601Z,0.54
2022-11-19T05:36:26.173Z,0.58
2022-11-19T05:38:52.913Z,0.57
2022-11-19T05:41:19.756Z,0.54
2022-11-19T05:43:46.698Z,0.52
2022-11-19T05:46:13.452Z,0.50
2022-11-19T05:48:40.122Z,0.49
2022-11-19T05:51:06.767Z,0.55
2022-11-19T05:53:33.349Z,0.54
2022-11-19T05:55:59.989Z,0.49
2022-11-19T05:58:26.633Z,0.50
2022-11-19T06:00:54.991Z,0.54
2022-11-19T06:03:21.698Z,0.49
2022-11-19T06:05:48.282Z,0.57
2022-11-19T06:08:14.953Z,0.67
2022-11-19T06:10:41.673Z,0.90
2022-11-19T06:13:08.440Z,0.86
2022-11-19T06:15:35.209Z,1.01
2022-11-19T06:18:01.933Z,1.05
2022-11-19T06:20:28.536Z,1.15
2022-11-19T06:22:55.166Z,1.22
2022-11-19T06:25:21.791Z,1.22
2022-11-19T06:27:48.380Z,1.13
2022-11-19T06:30:15.617Z,1.24
2022-11-19T06:32:43.256Z,1.34
2022-11-19T06:35:10.089Z,1.47
2022-11-19T06:37:38.308Z,1.65
2022-11-19T06:40:05.476Z,1.67
2022-11-19T06:42:32.158Z,1.79
2022-11-19T06:44:58.843Z,1.63
2022-11-19T06:47:25.500Z,1.62
2022-11-19T06:49:52.092Z,1.44
2022-11-19T06:52:18.759Z,1.36
2022-11-19T06:54:45.357Z,1.28
2022-11-19T06:57:11.967Z,1.37
2022-11-19T06:59:38.552Z,1.09
2022-11-19T07:02:05.604Z,1.23
2022-11-19T07:04:32.336Z,1.29
2022-11-19T07:06:59.058Z,1.13
2022-11-19T07:09:25.731Z,0.97
2022-11-19T07:11:52.398Z,0.81
2022-11-19T07:14:19.064Z,0.65
2022-11-19T07:16:45.660Z,0.64
2022-11-19T07:19:12.279Z,0.73
2022-11-19T07:21:38.965Z,0.86
2022-11-19T07:24:09.252Z,0.86
2022-11-19T07:26:37.562Z,0.92
2022-11-19T07:29:07.133Z,0.77
2022-11-19T07:31:34.038Z,1.13
2022-11-19T07:34:00.927Z,0.74
2022-11-19T07:36:27.537Z,0.71
2022-11-19T07:38:54.208Z,0.61
2022-11-19T07:41:23.121Z,0.50
2022-11-19T07:43:49.845Z,0.56
2022-11-19T07:46:16.568Z,0.55
2022-11-19T07:48:43.172Z,0.53
2022-11-19T07:51:09.849Z,0.71
2022-11-19T07:53:36.481Z,0.70
2022-11-19T07:56:04.092Z,0.68
2022-11-19T07:58:30.661Z,0.57
2022-11-19T08:00:57.266Z,0.54
2022-11-19T08:03:23.855Z,0.51
2022-11-19T08:05:50.477Z,0.51
2022-11-19T08:08:17.086Z,0.61
2022-11-19T08:10:43.686Z,0.82
2022-11-19T08:13:10.292Z,0.77
2022-11-19T08:15:36.901Z,0.80
2022-11-19T08:18:03.555Z,0.74
2022-11-19T08:20:31.254Z,0.81
2022-11-19T08:22:57.883Z,0.81
2022-11-19T08:25:24.483Z,0.73
2022-11-19T08:27:51.064Z,0.71
2022-11-19T08:30:17.684Z,0.79
2022-11-19T08:32:44.293Z,0.89
2022-11-19T08:35:10.925Z,0.79
2022-11-19T08:37:37.505Z,0.68
2022-11-19T08:40:04.335Z,0.87
2022-11-19T08:42:30.944Z,0.98
2022-11-19T08:44:57.630Z,2.25
2022-11-19T08:47:24.257Z,2.29
2022-11-19T08:49:50.829Z,0.76
2022-11-19T08:52:17.416Z,0.69
2022-11-19T08:54:44.014Z,0.78
2022-11-19T08:57:10.593Z,0.72
2022-11-19T08:59:37.180Z,0.62
2022-11-19T09:02:03.811Z,0.72
2022-11-19T09:04:30.482Z,0.96
2022-11-19T09:06:57.462Z,0.84
2022-11-19T09:09:24.109Z,0.85
2022-11-19T09:11:50.756Z,0.87
2022-11-19T09:14:17.726Z,0.74
2022-11-19T09:16:44.926Z,0.94
2022-11-19T09:19:11.761Z,0.83
2022-11-19T09:21:38.405Z,0.80
2022-11-19T09:24:05.448Z,0.77
2022-11-19T09:26:32.064Z,0.77
2022-11-19T09:28:58.724Z,0.72
2022-11-19T09:31:25.609Z,0.66
2022-11-19T09:33:54.030Z,0.72
2022-11-19T09:36:21.148Z,0.74
2022-11-19T09:38:48.465Z,1.03
2022-11-19T09:41:17.759Z,1.04
2022-11-19T09:44:06.144Z,0.89
2022-11-19T09:47:08.118Z,0.85
2022-11-19T09:49:55.961Z,0.82
2022-11-19T09:52:27.293Z,0.84
2022-11-19T09:54:57.497Z,0.68
2022-11-19T09:57:39.269Z,0.67
2022-11-19T10:00:09.423Z,0.75
2022-11-19T10:02:36.056Z,0.72
2022-11-19T10:05:03.527Z,0.75
2022-11-19T10:07:30.240Z,0.94
2022-11-19T10:10:26.938Z,0.92
2022-11-19T10:13:14.588Z,0.96
2022-11-19T10:16:01.683Z,0.91
2022-11-19T10:18:34.249Z,0.75
2022-11-19T10:21:18.603Z,0.72
2022-11-19T10:23:57.106Z,0.90
2022-11-19T10:26:38.616Z,0.75
2022-11-19T10:29:19.038Z,0.82
2022-11-19T10:31:50.694Z,0.98
2022-11-19T10:34:30.737Z,0.94
2022-11-19T10:37:11.141Z,0.95
2022-11-19T10:39:46.238Z,1.05
2022-11-19T10:42:23.054Z,1.16
2022-11-19T10:45:06.568Z,0.87
2022-11-19T10:48:08.692Z,0.86
2022-11-19T10:50:40.704Z,0.84
2022-11-19T10:53:21.449Z,0.78
2022-11-19T10:55:54.758Z,0.67
2022-11-19T10:58:29.366Z,0.79
2022-11-19T11:00:59.560Z,0.75
2022-11-19T11:03:29.238Z,0.84
2022-11-19T11:06:04.131Z,1.07
2022-11-19T11:08:31.327Z,1.20
2022-11-19T11:10:58.761Z,0.88
2022-11-19T11:13:34.227Z,0.69
2022-11-19T11:16:11.660Z,0.62
2022-11-19T11:18:39.924Z,0.70
2022-11-19T11:21:13.060Z,0.81
2022-11-19T11:23:53.242Z,1.25
2022-11-19T11:26:24.386Z,0.57
2022-11-19T11:29:13.652Z,0.65
2022-11-19T11:31:46.261Z,0.67
2022-11-19T11:34:27.728Z,0.63
2022-11-19T11:36:56.466Z,1.19
2022-11-19T11:39:37.387Z,0.90
2022-11-19T11:42:07.477Z,0.72
2022-11-19T11:44:38.001Z,0.79
2022-11-19T11:47:15.887Z,0.68
2022-11-19T11:50:14.727Z,0.61
2022-11-19T11:52:49.196Z,0.65
2022-11-19T11:55:31.290Z,0.75
2022-11-19T11:58:02.340Z,0.57
2022-11-19T12:00:41.976Z,0.50
2022-11-19T12:03:14.653Z,0.45
2022-11-19T12:05:53.365Z,0.36
2022-11-19T12:08:38.742Z,0.39
2022-11-19T12:11:24.107Z,0.44
2022-11-19T12:14:11.134Z,0.48
2022-11-19T12:17:06.078Z,0.47
2022-11-19T12:19:58.541Z,0.64
2022-11-19T12:22:30.729Z,0.74
2022-11-19T12:25:15.253Z,0.63
2022-11-19T12:27:55.842Z,0.53
2022-11-19T12:30:38.056Z,0.41
2022-11-19T12:33:10.374Z,0.51
2022-11-19T12:36:01.864Z,0.53
2022-11-19T12:38:40.664Z,0.50
2022-11-19T12:41:34.136Z,0.46
2022-11-19T12:44:03.692Z,0.45
2022-11-19T12:46:57.535Z,0.36
2022-11-19T12:49:42.959Z,0.36
2022-11-19T12:52:52.717Z,0.40
2022-11-19T12:55:25.004Z,0.54
2022-11-19T12:58:23.865Z,0.58
2022-11-19T13:00:58.700Z,0.53
2022-11-19T13:04:02.050Z,0.56
2022-11-19T13:06:41.855Z,0.60
2022-11-19T13:09:16.218Z,0.55
2022-11-19T13:11:49.909Z,0.85
2022-11-19T13:14:40.421Z,1.79
2022-11-19T13:17:15.679Z,1.34
2022-11-19T13:19:49.084Z,0.82
2022-11-19T13:22:22.232Z,0.66
2022-11-19T13:24:59.584Z,0.76
2022-11-19T13:27:30.303Z,1.09
2022-11-19T13:30:07.207Z,0.86
2022-11-19T13:32:48.322Z,0.83
2022-11-19T13:35:32.797Z,0.79
2022-11-19T13:38:36.844Z,0.73
2022-11-19T13:41:27.818Z,0.75
2022-11-19T13:43:56.493Z,0.66
2022-11-19T13:46:33.575Z,0.75
2022-11-19T13:49:00.107Z,0.69
2022-11-19T13:51:32.888Z,0.71
2022-11-19T13:54:03.823Z,0.74
2022-11-19T13:56:57.954Z,0.75
2022-11-19T13:59:39.553Z,0.60
2022-11-19T14:02:20.113Z,0.65
2022-11-19T14:05:10.074Z,0.67
2022-11-19T14:07:53.883Z,0.65
2022-11-19T14:10:57.057Z,0.56
2022-11-19T14:13:23.700Z,0.58
2022-11-19T14:16:06.854Z,0.75
2022-11-19T14:18:39.742Z,0.78
2022-11-19T14:21:24.808Z,0.79
2022-11-19T14:23:51.431Z,0.82
2022-11-19T14:26:56.348Z,0.99
2022-11-19T14:29:25.358Z,0.92
2022-11-19T14:32:00.874Z,0.83
2022-11-19T14:34:34.055Z,0.74
2022-11-19T14:37:22.881Z,0.74
2022-11-19T14:40:08.481Z,0.89
2022-11-19T14:42:35.273Z,0.86
2022-11-19T14:45:01.940Z,0.77
2022-11-19T14:47:40.807Z,0.90
2022-11-19T14:50:32.049Z,0.79
2022-11-19T14:53:01.411Z,0.92
2022-11-19T14:55:31.257Z,0.94
2022-11-19T14:57:57.844Z,0.86
2022-11-19T15:00:36.363Z,0.82
2022-11-19T15:03:12.380Z,0.95
2022-11-19T15:05:42.649Z,0.76
2022-11-19T15:08:18.116Z,0.90
2022-11-19T15:11:02.727Z,1.01
2022-11-19T15:13:34.010Z,0.90
2022-11-19T15:16:15.997Z,0.88
2022-11-19T15:18:42.541Z,0.96
2022-11-19T15:21:35.675Z,0.95
2022-11-19T15:24:20.436Z,1.06
2022-11-19T15:26:49.758Z,1.16
2022-11-19T15:29:55.033Z,1.20
2022-11-19T15:32:43.005Z,2.06
2022-11-19T15:35:34.115Z,3.61
2022-11-19T15:38:18.476Z,2.54
2022-11-19T15:40:49.916Z,2.66
2022-11-19T15:43:22.220Z,4.26
2022-11-19T15:46:30.151Z,3.68
2022-11-19T15:49:23.340Z,8.34
2022-11-19T15:52:17.316Z,12.72
2022-11-19T15:54:44.526Z,14.00
2022-11-19T15:57:17.307Z,13.82
2022-11-19T15:59:51.244Z,13.61
2022-11-19T16:02:26.989Z,14.29
2022-11-19T16:04:53.727Z,8.06
2022-11-19T16:07:28.294Z,8.10
2022-11-19T16:09:56.108Z,5.96
2022-11-19T16:12:27.113Z,5.48
2022-11-19T16:14:53.877Z,8.63
2022-11-19T16:17:23.168Z,6.09
2022-11-19T16:20:07.062Z,4.67
2022-11-19T16:22:49.416Z,4.33
2022-11-19T16:25:40.365Z,2.57
2022-11-19T16:28:16.109Z,2.60
2022-11-19T16:30:52.706Z,2.66
2022-11-19T16:33:26.721Z,2.84
2022-11-19T16:36:12.026Z,2.90
2022-11-19T16:38:43.024Z,3.27
2022-11-19T16:41:12.653Z,3.69
2022-11-19T16:43:43.447Z,3.29
2022-11-19T16:46:20.160Z,2.33
2022-11-19T16:48:49.538Z,2.57
2022-11-19T16:51:36.748Z,2.75
2022-11-19T16:54:06.772Z,3.46
2022-11-19T16:56:45.906Z,2.48
2022-11-19T16:59:23.102Z,5.63
2022-11-19T17:01:57.101Z,2.86
2022-11-19T17:04:30.967Z,7.22
2022-11-19T17:06:59.186Z,5.53
2022-11-19T17:09:43.087Z,6.82
2022-11-19T17:12:52.497Z,8.39
2022-11-19T17:15:37.396Z,5.99
2022-11-19T17:18:35.056Z,6.93
2022-11-19T17:21:27.873Z,9.16
2022-11-19T17:23:55.645Z,5.41
2022-11-19T17:26:26.295Z,6.13
2022-11-19T17:29:19.236Z,3.46
2022-11-19T17:31:47.757Z,2.64
2022-11-19T17:34:31.712Z,2.88
2022-11-19T17:36:58.998Z,3.09
2022-11-19T17:39:25.884Z,4.96
2022-11-19T17:41:55.191Z,4.12
2022-11-19T17:44:25.719Z,3.41
2022-11-19T17:46:52.301Z,3.01
2022-11-19T17:49:18.909Z,2.64
2022-11-19T17:51:45.512Z,3.20
2022-11-19T17:54:12.124Z,2.49
2022-11-19T17:56:38.747Z,2.40
2022-11-19T17:59:05.502Z,2.36
2022-11-19T18:01:32.240Z,2.86
2022-11-19T18:03:58.902Z,2.95
2022-11-19T18:06:25.819Z,2.57
2022-11-19T18:08:52.630Z,2.53
2022-11-19T18:11:23.625Z,3.07
2022-11-19T18:13:55.728Z,2.33
2022-11-19T18:16:27.814Z,2.75
2022-11-19T18:18:54.485Z,3.28
2022-11-19T18:21:22.972Z,3.55
2022-11-19T18:23:51.610Z,4.84
2022-11-19T18:26:20.880Z,4.83
2022-11-19T18:28:49.016Z,4.52
2022-11-19T18:31:22.052Z,5.03
2022-11-19T18:33:49.705Z,4.65
2022-11-19T18:36:17.323Z,7.43
2022-11-19T18:38:44.546Z,6.75
2022-11-19T18:41:13.119Z,5.39
2022-11-19T18:43:40.164Z,4.30
2022-11-19T18:46:06.839Z,4.97
2022-11-19T18:48:33.451Z,5.12
2022-11-19T18:51:00.092Z,4.50
2022-11-19T18:53:26.893Z,5.46
2022-11-19T18:55:53.761Z,6.81
2022-11-19T18:58:20.342Z,8.02
2022-11-19T19:00:46.941Z,5.85
2022-11-19T19:03:13.533Z,5.24
2022-11-19T19:05:40.395Z,7.73
2022-11-19T19:08:08.847Z,6.22
2022-11-19T19:10:35.443Z,6.18
2022-11-19T19:13:02.470Z,5.19
2022-11-19T19:15:29.216Z,4.38
2022-11-19T19:17:55.869Z,5.30
2022-11-19T19:20:22.482Z,5.47
2022-11-19T19:22:49.084Z,4.66
2022-11-19T19:25:15.757Z,5.60
2022-11-19T19:27:42.400Z,5.15
2022-11-19T19:30:09.776Z,5.60
2022-11-19T19:32:36.410Z,5.06
2022-11-19T19:35:03.144Z,4.90
2022-11-19T19:37:29.723Z,5.90
2022-11-19T19:39:56.411Z,5.85
2022-11-19T19:42:23.041Z,6.11
2022-11-19T19:44:49.661Z,5.39
2022-11-19T19:47:16.321Z,4.85
2022-11-19T19:49:42.953Z,6.43
2022-11-19T19:52:10.860Z,6.70
2022-11-19T19:54:37.532Z,5.97
2022-11-19T19:57:04.185Z,6.59
2022-11-19T19:59:30.905Z,6.14
2022-11-19T20:01:57.632Z,5.01
2022-11-19T20:04:25.409Z,5.75
2022-11-19T20:06:53.424Z,7.80
2022-11-19T20:09:20.094Z,7.45
2022-11-19T20:11:47.004Z,6.16
2022-11-19T20:14:13.727Z,7.49
2022-11-19T20:16:41.405Z,7.02
2022-11-19T20:19:12.661Z,6.13
2022-11-19T20:21:39.292Z,6.91
2022-11-19T20:24:11.871Z,5.57
2022-11-19T20:26:40.512Z,5.32
2022-11-19T20:29:07.524Z,4.26
2022-11-19T20:31:34.640Z,3.56
2022-11-19T20:34:04.241Z,3.24
2022-11-19T20:36:34.699Z,3.07
2022-11-19T20:39:01.433Z,2.54
2022-11-19T20:41:28.793Z,2.60
2022-11-19T20:44:00.337Z,2.11
2022-11-19T20:46:27.017Z,2.46
2022-11-19T20:48:53.753Z,2.28
2022-11-19T20:51:20.400Z,2.24
2022-11-19T20:53:47.036Z,2.12
2022-11-19T20:56:14.248Z,2.74
2022-11-19T20:58:40.932Z,5.85
2022-11-19T21:01:10.069Z,6.32
2022-11-19T21:03:39.430Z,6.27
2022-11-19T21:06:06.972Z,4.23
2022-11-19T21:08:36.300Z,3.90
2022-11-19T21:11:09.468Z,3.86
2022-11-19T21:13:40.538Z,5.24
2022-11-19T21:16:13.167Z,3.59
2022-11-19T21:18:39.912Z,2.60
2022-11-19T21:21:07.551Z,2.34
2022-11-19T21:23:34.807Z,3.47
2022-11-19T21:26:13.263Z,3.10
2022-11-19T21:28:39.935Z,2.42
2022-11-19T21:31:06.600Z,3.20
2022-11-19T21:33:33.263Z,3.24
2022-11-19T21:36:02.097Z,3.04
2022-11-19T21:38:28.908Z,3.91
2022-11-19T21:40:56.110Z,4.03
2022-11-19T21:43:25.688Z,2.84
2022-11-19T21:45:54.181Z,3.05
2022-11-19T21:48:22.522Z,3.27
2022-11-19T21:50:49.516Z,3.64
2022-11-19T21:53:17.414Z,3.31
2022-11-19T21:55:48.410Z,4.59
2022-11-19T21:58:18.927Z,6.09
2022-11-19T22:00:46.130Z,2.93
2022-11-19T22:03:14.481Z,3.14
2022-11-19T22:05:41.541Z,3.24
2022-11-19T22:08:08.491Z,8.42
2022-11-19T22:10:35.134Z,4.77
2022-11-19T22:13:01.736Z,1.88
2022-11-19T22:15:28.328Z,2.84
2022-11-19T22:17:54.993Z,3.49
2022-11-19T22:20:21.666Z,2.75
2022-11-19T22:22:48.262Z,2.62
2022-11-19T22:25:15.082Z,3.82
2022-11-19T22:27:41.943Z,3.65
2022-11-19T22:30:09.729Z,2.78
2022-11-19T22:32:36.461Z,2.85
2022-11-19T22:35:03.609Z,2.82
2022-11-19T22:37:30.213Z,2.73
2022-11-19T22:39:56.816Z,3.30
2022-11-19T22:42:23.414Z,2.68
2022-11-19T22:44:50.996Z,2.43
2022-11-19T22:47:17.581Z,2.55
2022-11-19T22:49:44.166Z,2.49
2022-11-19T22:52:10.810Z,2.15
2022-11-19T22:54:41.428Z,2.05
2022-11-19T22:57:09.846Z,2.05
2022-11-19T22:59:36.784Z,2.09
2022-11-19T23:02:03.357Z,2.47
2022-11-19T23:04:30.026Z,2.47
2022-11-19T23:06:56.827Z,2.69
2022-11-19T23:09:23.775Z,2.56
2022-11-19T23:11:50.622Z,2.32
2022-11-19T23:14:19.033Z,2.34
2022-11-19T23:16:45.901Z,2.63
2022-11-19T23:19:14.131Z,2.68
2022-11-19T23:21:41.560Z,2.17
2022-11-19T23:24:09.629Z,2.31
2022-11-19T23:26:36.680Z,2.37
2022-11-19T23:29:04.238Z,2.32
2022-11-19T23:31:36.809Z,1.99
2022-11-19T23:34:04.222Z,2.21
2022-11-19T23:36:36.139Z,2.33
2022-11-19T23:39:04.449Z,2.09
2022-11-19T23:41:33.222Z,2.16
2022-11-19T23:44:00.515Z,1.98
2022-11-19T23:46:29.804Z,2.21
2022-11-19T23:48:58.206Z,2.07
2022-11-19T23:51:29.216Z,2.04
2022-11-19T23:53:56.556Z,1.89
2022-11-19T23:56:25.075Z,1.99
2022-11-19T23:58:51.836Z,2.12
